This is the latest recevied weather packets stored in our database for station/object KE4EST. If no packets are shown the sender has not sent any weather packets the latest 10 day(s).
| Time | Temp. | Humidity | Pressure | Rain* | Wind** | Luminosity | Snow |
|---|---|---|---|---|---|---|---|
| 1777830568 | 18.33° C | 35% | 1019.6 hPa | 0 mm | - | 713 W/m² | - |
| 1777830267 | 17.22° C | 38% | 1019.8 hPa | 0 mm | - | 715 W/m² | - |
| 1777829967 | 17.22° C | 38% | 1019.8 hPa | 0 mm | - | 714 W/m² | - |
| 1777829663 | 17.22° C | 38% | 1020 hPa | 0 mm | - | 712 W/m² | - |
| 1777829360 | 17.22° C | 39% | 1020 hPa | 0 mm | - | 699 W/m² | - |
| 1777829057 | 16.67° C | 38% | 1019.8 hPa | 0 mm | - | 712 W/m² | - |
| 1777828753 | 16.67° C | 42% | 1019.7 hPa | 0 mm | - | 698 W/m² | - |
| 1777828450 | 17.22° C | 38% | 1020.1 hPa | 0 mm | - | 591 W/m² | - |
| 1777828148 | 16.67° C | 43% | 1020 hPa | 0 mm | - | 129 W/m² | - |
| 1777827844 | 16.67° C | 42% | 1020.1 hPa | 0 mm | - | 655 W/m² | - |
| 1777827541 | 16.67° C | 41% | 1020.1 hPa | 0 mm | - | 655 W/m² | - |
| 1777827239 | 16.11° C | 41% | 1020.1 hPa | 0 mm | - | 66 W/m² | - |
| 1777826934 | 16.11° C | 42% | 1020.2 hPa | 0 mm | - | 265 W/m² | - |
| 1777826632 | 16.11° C | 42% | 1020.3 hPa | 0 mm | - | 271 W/m² | - |
| 1777826327 | 16.11° C | 44% | 1020.2 hPa | 0 mm | - | 211 W/m² | - |
| 1777826026 | 16.11° C | 45% | 1020.3 hPa | 0 mm | - | 229 W/m² | - |
| 1777825722 | 16.11° C | 43% | 1020.5 hPa | 0 mm | - | 91 W/m² | - |
| 1777825420 | 15.56° C | 46% | 1020.4 hPa | 0 mm | - | 48 W/m² | - |
| 1777825117 | 15° C | 47% | 1020.5 hPa | 0 mm | - | 172 W/m² | - |
| 1777824813 | 15° C | 48% | 1020.5 hPa | 0 mm | - | 84 W/m² | - |
| 1777824510 | 15° C | 50% | 1020.6 hPa | 0 mm | - | 288 W/m² | - |
| 1777824206 | 15° C | 48% | 1020.7 hPa | 0 mm | - | 633 W/m² | - |
| 1777823902 | 13.89° C | 51% | 1020.6 hPa | 0 mm | - | 100 W/m² | - |
| 1777823600 | 15° C | 48% | 1020.6 hPa | 0 mm | - | 98 W/m² | - |
| 1777823297 | 15° C | 52% | 1020.8 hPa | 0 mm | - | 231 W/m² | - |
* Rain latest hour (hover to see other rain measurements)
** Current wind speed in m/s (hover to see current wind gust speed)